Time;durP1;ratioP1;P1;durP2;ratioP2;P2;SDS_P1;SDS_P2;PMS_P1;PMS_P2;Temp;Humidity;BMP_temperature;BMP_pressure;BME280_temperature;BME280_humidity;BME280_pressure;Samples;Min_cycle;Max_cycle;Signal;HPM_P1;HPM_P2
2023/12/07 00:00:20;;;;;;;44.07;17.20;;;4.50;99.90;;;;;;5060590;28;20471;-74
2023/12/07 00:02:47;;;;;;;26.07;15.37;;;4.50;99.90;;;;;;5047291;28;21169;-74
2023/12/07 00:05:15;;;;;;;31.57;17.93;;;4.40;99.90;;;;;;5050126;28;20476;-73
2023/12/07 00:07:42;;;;;;;29.30;16.07;;;4.30;99.90;;;;;;5046771;28;20993;-75
2023/12/07 00:10:09;;;;;;;38.57;18.47;;;4.20;99.90;;;;;;5060755;28;20478;-71
2023/12/07 00:12:36;;;;;;;35.07;18.10;;;4.20;99.90;;;;;;5057263;28;20522;-74
2023/12/07 00:15:04;;;;;;;47.17;18.93;;;;;;;;;;5046156;28;20830;-73
2023/12/07 00:17:31;;;;;;;31.00;17.83;;;4.40;99.90;;;;;;5059226;28;20482;-74
2023/12/07 00:19:57;;;;;;;31.40;18.30;;;4.50;99.90;;;;;;5059110;28;20491;-74
2023/12/07 00:22:28;;;;;;;46.70;20.03;;;4.70;99.90;;;;;;5059263;28;20736;-75
2023/12/07 00:24:55;;;;;;;32.60;17.93;;;4.80;99.90;;;;;;5030853;28;20514;-75
2023/12/07 00:27:22;;;;;;;46.20;19.00;;;4.90;99.90;;;;;;5056920;28;20478;-75
2023/12/07 00:29:49;;;;;;;37.03;19.73;;;;;;;;;;5056450;28;20487;-74
2023/12/07 00:32:17;;;;;;;41.83;18.03;;;5.10;99.90;;;;;;5059449;28;20532;-73
2023/12/07 00:34:44;;;;;;;41.37;20.87;;;5.20;99.90;;;;;;5058964;28;20842;-75
2023/12/07 00:37:11;;;;;;;38.70;19.30;;;5.30;99.90;;;;;;5055937;28;20475;-75
2023/12/07 00:39:41;;;;;;;34.27;18.13;;;5.30;99.90;;;;;;5059360;28;20482;-75
2023/12/07 00:42:08;;;;;;;29.90;18.17;;;5.30;99.90;;;;;;5056352;28;20895;-73
2023/12/07 00:44:34;;;;;;;41.80;20.47;;;5.20;99.90;;;;;;5058342;28;20471;-74
2023/12/07 00:47:01;;;;;;;37.40;18.83;;;5.20;99.90;;;;;;5059586;28;21168;-74
2023/12/07 00:49:28;;;;;;;55.40;19.73;;;;;;;;;;5061387;28;20487;-74
2023/12/07 00:51:55;;;;;;;37.30;18.40;;;5.20;99.90;;;;;;5062020;28;20535;-73
2023/12/07 00:54:22;;;;;;;39.23;19.73;;;5.10;99.90;;;;;;5058898;28;20474;-74
2023/12/07 00:56:51;;;;;;;43.43;17.80;;;5.20;99.90;;;;;;5050219;28;20514;-71
2023/12/07 00:59:18;;;;;;;31.90;17.33;;;;;;;;;;5064495;28;20482;-74
2023/12/07 01:01:45;;;;;;;41.37;19.30;;;5.30;99.90;;;;;;5062194;28;21001;-73
2023/12/07 01:04:11;;;;;;;42.77;20.93;;;5.30;99.90;;;;;;5062863;28;20528;-73
2023/12/07 01:06:38;;;;;;;40.40;20.50;;;5.30;99.90;;;;;;5062059;28;20575;-74
2023/12/07 01:09:05;;;;;;;44.33;21.60;;;5.20;99.90;;;;;;5062303;28;20563;-74
2023/12/07 01:11:32;;;;;;;40.87;21.50;;;5.20;99.90;;;;;;5061866;28;20544;-74
2023/12/07 01:14:00;;;;;;;362.27;149.27;;;5.20;99.90;;;;;;5057197;28;20996;-74
2023/12/07 01:16:27;;;;;;;73.60;31.87;;;5.30;99.90;;;;;;5051798;28;20570;-73
2023/12/07 01:18:54;;;;;;;43.07;21.83;;;5.30;99.90;;;;;;5062312;28;20483;-74
2023/12/07 01:21:20;;;;;;;38.53;19.27;;;5.40;99.90;;;;;;5063746;28;20505;-73
2023/12/07 01:23:47;;;;;;;47.03;21.63;;;5.20;99.90;;;;;;5062211;28;20475;-73
2023/12/07 01:26:14;;;;;;;51.43;20.10;;;5.10;99.90;;;;;;5050955;28;20972;-74
2023/12/07 01:28:41;;;;;;;44.47;22.20;;;5.10;99.90;;;;;;5058210;28;20972;-75
2023/12/07 01:31:09;;;;;;;47.57;22.70;;;5.10;99.90;;;;;;5050876;28;20499;-74
2023/12/07 01:33:36;;;;;;;44.70;23.37;;;5.10;99.90;;;;;;5059473;28;20611;-75
2023/12/07 01:36:03;;;;;;;39.83;20.27;;;5.00;99.90;;;;;;5060780;28;20502;-74
2023/12/07 01:38:30;;;;;;;38.70;18.77;;;4.80;99.90;;;;;;5061560;28;20487;-73
2023/12/07 01:40:57;;;;;;;39.03;18.47;;;4.70;99.90;;;;;;5060698;28;20495;-74
2023/12/07 01:43:24;;;;;;;41.37;20.57;;;4.70;99.90;;;;;;5061566;28;20516;-75
2023/12/07 01:45:53;;;;;;;50.63;22.67;;;;;;;;;;5052903;28;20915;-74
2023/12/07 01:48:23;;;;;;;46.50;18.30;;;4.60;99.90;;;;;;5026945;28;20542;-75
2023/12/07 01:50:51;;;;;;;46.43;20.40;;;4.40;99.90;;;;;;5024017;28;20548;-76
2023/12/07 01:53:19;;;;;;;45.23;20.03;;;4.30;99.90;;;;;;5050907;28;21531;-75
2023/12/07 01:55:47;;;;;;;34.70;18.83;;;4.30;99.90;;;;;;5042801;28;20582;-75
2023/12/07 01:58:15;;;;;;;40.27;16.70;;;4.40;99.90;;;;;;5027473;28;20475;-74
2023/12/07 02:00:42;;;;;;;37.50;22.23;;;4.60;99.90;;;;;;5051234;28;20483;-74
2023/12/07 02:03:09;;;;;;;37.93;18.17;;;4.70;99.90;;;;;;5059649;28;21107;-75
2023/12/07 02:05:38;;;;;;;51.30;17.13;;;4.70;99.90;;;;;;5048849;28;20836;-74
2023/12/07 02:08:05;;;;;;;31.70;13.50;;;4.60;99.90;;;;;;5049191;28;20969;-73
2023/12/07 02:10:32;;;;;;;37.40;15.50;;;4.50;99.90;;;;;;5052416;28;20475;-73
2023/12/07 02:12:59;;;;;;;32.77;16.60;;;4.40;99.90;;;;;;5061113;28;20536;-75
2023/12/07 02:15:26;;;;;;;41.70;20.07;;;4.50;99.90;;;;;;5061603;28;20549;-75
2023/12/07 02:17:58;;;;;;;31.67;16.93;;;4.70;99.90;;;;;;5060983;28;20627;-75
2023/12/07 02:20:32;;;;;;;36.83;15.87;;;4.70;99.90;;;;;;5031003;28;20487;-75
2023/12/07 02:23:02;;;;;;;30.63;16.90;;;4.50;99.90;;;;;;5049796;28;20550;-73
2023/12/07 02:25:33;;;;;;;33.33;17.10;;;4.40;99.90;;;;;;5055540;28;20567;-74
2023/12/07 02:28:01;;;;;;;28.33;16.70;;;4.40;99.90;;;;;;5061249;28;20482;-73
2023/12/07 02:30:28;;;;;;;35.77;15.53;;;4.40;99.90;;;;;;5059882;28;20490;-71
2023/12/07 02:32:55;;;;;;;36.60;16.20;;;4.30;99.90;;;;;;5055571;28;20490;-73
2023/12/07 02:35:22;;;;;;;36.50;18.13;;;4.30;99.90;;;;;;5058942;28;20475;-74
2023/12/07 02:37:51;;;;;;;36.30;17.87;;;4.30;99.90;;;;;;5058590;28;20467;-74
2023/12/07 02:40:20;;;;;;;53.17;18.90;;;4.20;99.90;;;;;;5060301;28;20537;-75
2023/12/07 02:42:48;;;;;;;34.40;19.43;;;4.20;99.90;;;;;;5059811;28;20550;-73
2023/12/07 02:45:16;;;;;;;37.73;18.00;;;4.10;99.90;;;;;;5059391;28;20495;-75
2023/12/07 02:47:45;;;;;;;45.47;18.70;;;3.90;99.90;;;;;;5058990;28;20482;-74
2023/12/07 02:50:13;;;;;;;43.50;17.23;;;3.90;99.90;;;;;;5061268;28;20906;-74
2023/12/07 02:52:40;;;;;;;42.87;18.40;;;4.00;99.90;;;;;;5059726;28;21383;-74
2023/12/07 02:55:08;;;;;;;36.13;15.50;;;4.00;99.90;;;;;;5058997;28;20479;-74
2023/12/07 02:57:35;;;;;;;39.30;14.40;;;4.10;99.90;;;;;;5050698;28;20555;-75
2023/12/07 03:00:06;;;;;;;57.77;20.53;;;4.00;99.90;;;;;;5054408;28;20478;-74
2023/12/07 03:02:34;;;;;;;56.10;22.67;;;3.70;99.90;;;;;;5057483;28;20490;-75
2023/12/07 03:05:01;;;;;;;36.27;16.50;;;3.60;99.90;;;;;;5059547;28;20479;-72
2023/12/07 03:07:28;;;;;;;46.60;19.13;;;3.50;99.90;;;;;;5058056;28;20543;-73
2023/12/07 03:09:55;;;;;;;35.97;15.60;;;3.40;99.90;;;;;;5015321;28;20524;-70
2023/12/07 03:12:22;;;;;;;41.73;16.37;;;3.40;99.90;;;;;;5055974;28;20474;-73
2023/12/07 03:14:49;;;;;;;39.17;17.77;;;3.60;99.90;;;;;;5046466;28;20483;-73
2023/12/07 03:17:16;;;;;;;42.10;18.00;;;3.80;99.90;;;;;;5048656;28;20479;-72
2023/12/07 03:19:45;;;;;;;55.03;17.60;;;3.80;99.90;;;;;;5052255;28;20888;-73
2023/12/07 03:22:13;;;;;;;43.03;16.67;;;4.00;99.90;;;;;;5054959;28;20537;-72
2023/12/07 03:24:41;;;;;;;31.27;17.43;;;4.10;99.90;;;;;;5049454;28;20536;-72
2023/12/07 03:27:07;;;;;;;56.07;19.33;;;4.20;99.90;;;;;;5054556;28;20476;-72
2023/12/07 03:29:34;;;;;;;49.37;21.03;;;4.40;99.90;;;;;;5057899;28;20997;-73
2023/12/07 03:32:02;;;;;;;93.17;22.37;;;4.30;99.90;;;;;;5060086;28;20486;-73
2023/12/07 03:34:29;;;;;;;97.87;22.13;;;4.30;99.90;;;;;;5060175;28;20855;-72
2023/12/07 03:36:57;;;;;;;50.70;17.87;;;4.30;99.90;;;;;;5048890;28;20591;-72
2023/12/07 03:39:25;;;;;;;62.03;19.33;;;4.40;99.90;;;;;;5057650;28;20485;-72
2023/12/07 03:41:52;;;;;;;50.20;20.70;;;4.50;99.90;;;;;;5059978;28;20904;-73
2023/12/07 03:44:19;;;;;;;67.90;20.73;;;;;;;;;;5059909;28;20519;-73
2023/12/07 03:46:46;;;;;;;68.77;18.20;;;4.60;99.90;;;;;;5031411;28;20552;-73
2023/12/07 03:49:13;;;;;;;49.70;20.27;;;4.60;99.90;;;;;;5057044;28;20479;-73
2023/12/07 03:51:40;;;;;;;74.80;20.33;;;4.50;99.90;;;;;;5052458;28;20490;-72
2023/12/07 03:54:08;;;;;;;87.23;20.50;;;4.40;99.90;;;;;;5059082;28;20989;-74
2023/12/07 03:56:35;;;;;;;67.13;18.07;;;4.20;99.90;;;;;;5047915;28;20546;-72
2023/12/07 03:59:02;;;;;;;60.53;18.40;;;4.10;99.90;;;;;;5058722;28;20479;-73
2023/12/07 04:01:30;;;;;;;99.83;21.80;;;3.90;99.90;;;;;;5060028;28;20573;-71
2023/12/07 04:03:58;;;;;;;114.87;19.90;;;3.70;99.90;;;;;;5056602;28;20480;-74
2023/12/07 04:06:25;;;;;;;26.60;11.87;;;3.70;99.90;;;;;;5055814;28;20748;-73
2023/12/07 04:08:52;;;;;;;71.23;17.37;;;3.60;99.90;;;;;;5045852;28;20520;-73
2023/12/07 04:11:22;;;;;;;96.07;20.63;;;3.50;99.90;;;;;;5047902;28;20483;-71
2023/12/07 04:13:49;;;;;;;68.03;14.70;;;3.50;99.90;;;;;;5050182;28;20484;-73
2023/12/07 04:16:16;;;;;;;54.70;15.37;;;3.50;99.90;;;;;;5034432;28;20776;-73
2023/12/07 04:18:43;;;;;;;37.73;14.57;;;3.40;99.90;;;;;;5046089;28;20536;-71
2023/12/07 04:21:10;;;;;;;53.77;15.53;;;3.40;99.90;;;;;;5049673;28;20527;-71
2023/12/07 04:23:36;;;;;;;106.50;21.30;;;3.40;99.90;;;;;;5060533;28;20493;-73
2023/12/07 04:26:03;;;;;;;43.20;15.20;;;3.40;99.90;;;;;;5056823;28;20487;-72
2023/12/07 04:28:32;;;;;;;80.30;18.73;;;3.50;99.90;;;;;;5054959;28;20478;-71
2023/12/07 04:30:59;;;;;;;94.87;17.97;;;3.70;99.90;;;;;;5058350;28;20486;-73
2023/12/07 04:33:26;;;;;;;107.40;19.93;;;3.80;99.90;;;;;;5049280;28;21095;-72
2023/12/07 04:35:53;;;;;;;47.17;16.27;;;3.90;99.90;;;;;;5058709;28;20494;-73
2023/12/07 04:38:20;;;;;;;86.87;18.20;;;4.10;99.90;;;;;;5059872;28;20482;-72
2023/12/07 04:40:47;;;;;;;98.67;20.30;;;4.20;99.90;;;;;;5059618;28;20474;-72
2023/12/07 04:43:14;;;;;;;280.13;35.93;;;;;;;;;;5061475;28;20549;-73
2023/12/07 04:45:42;;;;;;;196.07;27.17;;;4.10;99.90;;;;;;5061480;28;20921;-71
2023/12/07 04:48:09;;;;;;;141.87;22.63;;;4.00;99.90;;;;;;5062932;28;20470;-73
2023/12/07 04:50:36;;;;;;;114.40;20.70;;;3.90;99.90;;;;;;5053545;28;20533;-72
2023/12/07 04:53:03;;;;;;;165.60;24.23;;;3.90;99.90;;;;;;5063891;28;20470;-73
2023/12/07 04:55:30;;;;;;;126.43;24.30;;;3.90;99.90;;;;;;5061130;28;21001;-73
2023/12/07 04:57:57;;;;;;;249.40;29.87;;;3.80;99.90;;;;;;5062118;28;20490;-73
2023/12/07 05:00:23;;;;;;;175.97;27.47;;;3.80;99.90;;;;;;5062882;28;20485;-73
2023/12/07 05:02:52;;;;;;;306.53;36.00;;;3.60;99.90;;;;;;5062327;28;20536;-72
2023/12/07 05:05:19;;;;;;;436.23;41.63;;;3.30;99.90;;;;;;5062185;28;20539;-73
2023/12/07 05:07:46;;;;;;;394.53;41.83;;;3.20;99.90;;;;;;5060949;28;20567;-72
2023/12/07 05:10:13;;;;;;;364.77;37.77;;;3.00;99.90;;;;;;5062903;28;20529;-73
2023/12/07 05:12:40;;;;;;;49.37;17.20;;;3.00;99.90;;;;;;5061919;28;20491;-73
2023/12/07 05:15:08;;;;;;;112.47;20.77;;;3.20;99.90;;;;;;5061801;28;20544;-71
2023/12/07 05:17:35;;;;;;;58.70;18.83;;;3.40;99.90;;;;;;5061518;28;20552;-73
2023/12/07 05:20:05;;;;;;;149.63;23.83;;;3.60;99.90;;;;;;5057060;28;20919;-74
2023/12/07 05:22:32;;;;;;;157.07;25.63;;;3.80;99.90;;;;;;5035505;28;20486;-75
2023/12/07 05:24:59;;;;;;;108.77;22.80;;;3.90;99.90;;;;;;5061903;28;20846;-74
2023/12/07 05:27:26;;;;;;;302.37;36.50;;;3.80;99.90;;;;;;5061924;28;20536;-73
2023/12/07 05:29:53;;;;;;;264.93;30.67;;;3.60;99.90;;;;;;5061791;28;20471;-73
2023/12/07 05:32:20;;;;;;;233.73;27.20;;;3.50;99.90;;;;;;5059704;28;21245;-74
2023/12/07 05:34:47;;;;;;;123.87;21.37;;;3.40;99.90;;;;;;5061819;28;20586;-73
2023/12/07 05:37:15;;;;;;;115.80;19.07;;;3.20;99.90;;;;;;5057397;28;20491;-74
2023/12/07 05:39:42;;;;;;;65.60;16.40;;;3.20;99.90;;;;;;5061610;28;20478;-73
2023/12/07 05:42:09;;;;;;;69.30;15.10;;;3.00;99.90;;;;;;5060808;28;20517;-73
2023/12/07 05:44:36;;;;;;;22.50;12.83;;;2.90;99.90;;;;;;5046688;28;21143;-73
2023/12/07 05:47:02;;;;;;;69.50;16.50;;;2.90;99.90;;;;;;5061384;28;20513;-73
2023/12/07 05:49:29;;;;;;;20.23;10.60;;;2.80;99.90;;;;;;5059174;28;20788;-73
2023/12/07 05:51:56;;;;;;;30.20;11.23;;;2.60;99.90;;;;;;5060380;28;21001;-71
2023/12/07 05:54:24;;;;;;;28.90;10.40;;;2.70;99.90;;;;;;5059351;28;20513;-74
2023/12/07 05:56:51;;;;;;;112.37;17.33;;;2.70;99.90;;;;;;5059853;28;20547;-72
2023/12/07 05:59:18;;;;;;;12.70;5.63;;;2.60;99.90;;;;;;5058579;28;20475;-73
2023/12/07 06:01:46;;;;;;;27.50;9.97;;;2.60;99.90;;;;;;5061603;28;20860;-72
2023/12/07 06:04:13;;;;;;;91.17;17.30;;;2.60;99.90;;;;;;5048701;28;20814;-72
2023/12/07 06:06:40;;;;;;;49.33;12.30;;;2.60;99.90;;;;;;5053823;28;20509;-74
2023/12/07 06:09:07;;;;;;;111.50;18.17;;;2.60;99.90;;;;;;5056521;28;20543;-73
2023/12/07 06:11:36;;;;;;;94.27;14.97;;;2.50;99.90;;;;;;5058120;28;20474;-72
2023/12/07 06:14:06;;;;;;;156.13;19.30;;;;;;;;;;5046306;28;20902;-73
2023/12/07 06:16:32;;;;;;;86.33;16.07;;;2.40;99.90;;;;;;5053467;28;21064;-72
2023/12/07 06:18:59;;;;;;;128.10;17.37;;;2.50;99.90;;;;;;5059984;28;20521;-73
2023/12/07 06:21:29;;;;;;;53.70;14.97;;;2.70;99.90;;;;;;5060008;28;21046;-72
2023/12/07 06:23:56;;;;;;;185.90;24.20;;;2.80;99.90;;;;;;5058861;28;20566;-73
2023/12/07 06:26:24;;;;;;;47.03;12.83;;;;;;;;;;5060309;28;20572;-73
2023/12/07 06:28:52;;;;;;;47.53;14.00;;;2.60;99.90;;;;;;5060143;28;20479;-71
2023/12/07 06:31:21;;;;;;;41.07;12.30;;;2.80;99.90;;;;;;5060606;28;20479;-73
2023/12/07 06:33:48;;;;;;;77.10;16.50;;;2.80;99.90;;;;;;5056664;28;20479;-72
2023/12/07 06:36:20;;;;;;;123.60;16.87;;;2.70;99.90;;;;;;5062002;28;20540;-74
2023/12/07 06:38:47;;;;;;;47.40;11.63;;;2.60;99.90;;;;;;5046987;28;20468;-72
2023/12/07 06:41:14;;;;;;;28.40;11.20;;;2.70;99.90;;;;;;5017346;28;20521;-73
2023/12/07 06:43:41;;;;;;;48.40;11.50;;;2.80;99.90;;;;;;5059739;28;20478;-73
2023/12/07 06:46:09;;;;;;;26.57;10.60;;;2.80;99.90;;;;;;5061206;28;20479;-73
2023/12/07 06:48:37;;;;;;;51.23;16.10;;;3.10;99.90;;;;;;5060314;28;20479;-73
2023/12/07 06:51:04;;;;;;;33.13;12.50;;;3.20;99.90;;;;;;5049870;28;20891;-73
2023/12/07 06:53:32;;;;;;;21.83;9.63;;;3.20;99.90;;;;;;5059405;28;20467;-73
2023/12/07 06:55:59;;;;;;;30.70;10.40;;;3.10;99.90;;;;;;5059625;28;20479;-73
2023/12/07 06:58:26;;;;;;;18.23;9.20;;;3.20;99.90;;;;;;5057055;28;20487;-73
2023/12/07 07:00:53;;;;;;;31.20;11.30;;;3.20;99.90;;;;;;5059936;28;20814;-73
2023/12/07 07:03:22;;;;;;;28.30;9.30;;;3.30;99.90;;;;;;5060477;28;20570;-72
2023/12/07 07:05:48;;;;;;;20.93;9.80;;;3.40;99.90;;;;;;5023346;28;20803;-73
2023/12/07 07:08:15;;;;;;;46.77;13.80;;;3.60;99.90;;;;;;5057227;28;20467;-73
2023/12/07 07:10:42;;;;;;;26.47;11.40;;;3.60;99.90;;;;;;5053861;28;20595;-73
2023/12/07 07:13:09;;;;;;;27.60;11.27;;;3.70;99.90;;;;;;5059439;28;20487;-74
2023/12/07 07:15:36;;;;;;;30.87;12.93;;;3.80;99.90;;;;;;5046082;28;20486;-74
2023/12/07 07:18:03;;;;;;;35.00;10.57;;;3.80;99.90;;;;;;5058504;28;20478;-73
2023/12/07 07:20:31;;;;;;;34.73;10.80;;;3.70;99.90;;;;;;5039567;28;20520;-74
2023/12/07 07:22:58;;;;;;;26.03;9.57;;;3.60;99.90;;;;;;5057800;28;20483;-73
2023/12/07 07:25:25;;;;;;;24.97;9.63;;;3.60;99.90;;;;;;5056432;28;21072;-72
2023/12/07 07:27:54;;;;;;;24.33;10.43;;;3.60;99.90;;;;;;5058469;28;20475;-73
2023/12/07 07:30:21;;;;;;;28.37;10.27;;;3.70;99.90;;;;;;5058072;28;20467;-73
2023/12/07 07:32:48;;;;;;;41.37;11.83;;;3.70;99.90;;;;;;5047487;28;20502;-73
2023/12/07 07:35:16;;;;;;;35.30;11.97;;;3.80;99.90;;;;;;5057688;28;20479;-73
2023/12/07 07:37:44;;;;;;;26.17;11.50;;;3.90;99.90;;;;;;5047030;28;20483;-72
2023/12/07 07:40:12;;;;;;;32.50;11.10;;;3.90;99.90;;;;;;5059123;28;20490;-73
2023/12/07 07:42:39;;;;;;;29.30;9.90;;;3.90;99.90;;;;;;5059574;28;20870;-73
2023/12/07 07:45:08;;;;;;;32.63;9.40;;;3.90;99.90;;;;;;5060200;28;20475;-72
2023/12/07 07:47:34;;;;;;;21.30;10.13;;;3.90;99.90;;;;;;5051387;28;20470;-73
2023/12/07 07:50:05;;;;;;;44.03;11.50;;;3.90;99.90;;;;;;5059587;28;20475;-74
2023/12/07 07:52:33;;;;;;;25.70;9.73;;;3.90;99.90;;;;;;5059893;28;20960;-73
2023/12/07 07:55:02;;;;;;;38.73;11.37;;;3.80;99.90;;;;;;5059217;28;20882;-73
2023/12/07 07:57:30;;;;;;;33.60;9.40;;;3.70;99.90;;;;;;5056543;28;20547;-73
2023/12/07 07:59:57;;;;;;;26.97;9.30;;;3.70;99.90;;;;;;5046280;28;20482;-73
2023/12/07 08:02:24;;;;;;;23.30;10.03;;;3.70;99.90;;;;;;5062920;28;20519;-73
2023/12/07 08:04:51;;;;;;;30.40;9.90;;;3.60;99.90;;;;;;5063763;28;20492;-73
2023/12/07 08:07:18;;;;;;;33.83;9.23;;;3.60;99.90;;;;;;5061518;28;20466;-73
2023/12/07 08:09:45;;;;;;;52.80;11.13;;;3.70;99.90;;;;;;5046614;28;20483;-73
2023/12/07 08:12:14;;;;;;;25.80;9.80;;;3.80;99.90;;;;;;5060651;28;20479;-72
2023/12/07 08:14:43;;;;;;;30.87;8.63;;;3.80;99.90;;;;;;5062178;28;20548;-73
2023/12/07 08:17:11;;;;;;;30.30;9.63;;;3.70;99.90;;;;;;5060522;28;20486;-73
2023/12/07 08:19:38;;;;;;;22.20;7.70;;;3.70;99.90;;;;;;5049602;28;20540;-73
2023/12/07 08:22:05;;;;;;;26.40;8.47;;;3.80;99.90;;;;;;5063183;28;20475;-73
2023/12/07 08:24:32;;;;;;;20.93;10.77;;;3.50;99.90;;;;;;5063491;28;20513;-73
2023/12/07 08:26:59;;;;;;;23.97;9.80;;;3.40;99.90;;;;;;5063051;28;20487;-73
2023/12/07 08:29:27;;;;;;;22.07;8.50;;;3.40;99.90;;;;;;5062082;28;20494;-73
2023/12/07 08:31:54;;;;;;;20.23;8.90;;;3.30;99.90;;;;;;5061769;28;20519;-73
2023/12/07 08:34:21;;;;;;;23.00;9.30;;;3.40;99.90;;;;;;5053189;28;20463;-74
2023/12/07 08:36:48;;;;;;;21.53;10.80;;;3.50;99.90;;;;;;5062464;28;20487;-72
2023/12/07 08:39:14;;;;;;;17.47;8.30;;;3.60;99.90;;;;;;5062904;28;20520;-73
2023/12/07 08:41:42;;;;;;;20.23;8.70;;;3.60;99.90;;;;;;5062489;28;20764;-72
2023/12/07 08:44:09;;;;;;;45.33;10.40;;;;;;;;;;5045177;28;20524;-73
2023/12/07 08:46:37;;;;;;;15.20;6.87;;;3.80;99.90;;;;;;5063097;28;20471;-73
2023/12/07 08:49:04;;;;;;;25.90;9.80;;;3.80;99.90;;;;;;5062039;28;20498;-72
2023/12/07 08:51:31;;;;;;;31.57;9.70;;;3.90;99.90;;;;;;5061142;28;20496;-72
2023/12/07 08:53:58;;;;;;;33.70;8.97;;;3.90;99.90;;;;;;5034275;28;20459;-72
2023/12/07 08:56:25;;;;;;;26.00;9.57;;;4.00;99.90;;;;;;5062542;28;20487;-72
2023/12/07 08:58:52;;;;;;;29.23;9.60;;;4.00;99.90;;;;;;5061197;28;20968;-72
2023/12/07 09:01:19;;;;;;;28.33;9.77;;;4.10;99.90;;;;;;5061147;28;20550;-73
2023/12/07 09:03:47;;;;;;;18.93;10.00;;;4.10;99.90;;;;;;5061949;28;20532;-72
2023/12/07 09:06:14;;;;;;;39.73;9.60;;;4.20;99.90;;;;;;5060945;28;21001;-74
2023/12/07 09:08:41;;;;;;;62.30;13.13;;;4.30;99.90;;;;;;5058682;28;20730;-74
2023/12/07 09:11:08;;;;;;;19.87;9.97;;;4.30;99.90;;;;;;5060400;28;20475;-73
2023/12/07 09:13:34;;;;;;;44.67;12.37;;;4.30;99.90;;;;;;5049611;28;20482;-73
2023/12/07 09:16:01;;;;;;;25.63;9.67;;;4.40;99.90;;;;;;5061943;28;20492;-73
2023/12/07 09:18:28;;;;;;;33.27;9.90;;;4.40;99.90;;;;;;5059749;28;20467;-72
2023/12/07 09:20:56;;;;;;;30.20;12.60;;;4.40;99.90;;;;;;5061869;28;20479;-72
2023/12/07 09:23:23;;;;;;;32.63;11.03;;;4.40;99.90;;;;;;5062119;28;20482;-72
2023/12/07 09:25:50;;;;;;;66.03;14.20;;;4.40;99.90;;;;;;5058407;28;20495;-73
2023/12/07 09:28:17;;;;;;;19.67;10.43;;;4.10;99.90;;;;;;5046756;28;20829;-73
2023/12/07 09:30:44;;;;;;;31.70;11.23;;;4.10;99.90;;;;;;5053278;28;20495;-74
2023/12/07 09:33:11;;;;;;;29.40;13.13;;;4.10;99.90;;;;;;5059510;28;20510;-73
2023/12/07 09:35:40;;;;;;;35.27;9.00;;;4.20;99.90;;;;;;5060961;28;20487;-73
2023/12/07 09:38:09;;;;;;;20.93;8.93;;;4.20;99.90;;;;;;5060457;28;20521;-72
2023/12/07 09:40:36;;;;;;;41.17;9.80;;;4.30;99.90;;;;;;5027588;28;20479;-73
2023/12/07 09:43:03;;;;;;;20.97;8.30;;;4.30;99.90;;;;;;5053014;28;20564;-74
2023/12/07 09:45:30;;;;;;;21.93;10.00;;;4.40;99.90;;;;;;5061682;28;20482;-74
2023/12/07 09:47:57;;;;;;;21.43;8.10;;;4.50;99.90;;;;;;5016351;28;20861;-74
2023/12/07 09:50:28;;;;;;;17.47;9.57;;;4.50;99.90;;;;;;5055641;28;20478;-73
2023/12/07 09:52:57;;;;;;;22.43;10.17;;;4.50;99.90;;;;;;5059980;28;20491;-74
2023/12/07 09:55:26;;;;;;;24.57;9.53;;;4.50;99.90;;;;;;5056424;28;20490;-72
2023/12/07 09:57:56;;;;;;;27.57;10.10;;;4.50;99.90;;;;;;5061300;28;20483;-73
2023/12/07 10:00:22;;;;;;;44.07;9.27;;;4.50;99.90;;;;;;5057194;28;20552;-74
2023/12/07 10:02:50;;;;;;;30.73;10.47;;;4.60;99.90;;;;;;5048417;28;20784;-73
2023/12/07 10:05:17;;;;;;;17.53;5.80;;;4.40;99.90;;;;;;5048648;28;20471;-74
2023/12/07 10:07:46;;;;;;;19.97;9.80;;;4.40;99.90;;;;;;5060595;28;20490;-72
2023/12/07 10:10:13;;;;;;;33.97;9.57;;;4.20;99.90;;;;;;5060912;28;20850;-73
2023/12/07 10:12:48;;;;;;;20.90;10.20;;;4.20;99.90;;;;;;5061008;28;21389;-73
2023/12/07 10:15:16;;;;;;;26.80;10.87;;;4.40;99.90;;;;;;5060073;28;20474;-72
2023/12/07 10:17:51;;;;;;;20.83;8.73;;;4.40;99.90;;;;;;5043681;28;20487;-73
2023/12/07 10:20:19;;;;;;;19.83;10.70;;;4.50;99.90;;;;;;5045845;28;20546;-73
2023/12/07 10:22:46;;;;;;;21.40;10.27;;;4.70;99.90;;;;;;5042434;28;20552;-73
2023/12/07 10:25:13;;;;;;;23.47;10.53;;;;;;;;;;5038702;28;20534;-71
2023/12/07 10:27:42;;;;;;;45.67;13.00;;;4.70;99.90;;;;;;5059777;28;20470;-73
2023/12/07 10:30:14;;;;;;;18.83;9.70;;;4.50;99.90;;;;;;5055182;28;20494;-74
2023/12/07 10:32:41;;;;;;;22.37;12.03;;;4.40;99.90;;;;;;5060030;28;20492;-73
2023/12/07 10:35:09;;;;;;;24.83;10.73;;;4.50;99.90;;;;;;5060091;28;20556;-72
2023/12/07 10:37:36;;;;;;;27.67;10.07;;;4.60;99.90;;;;;;5058053;28;20741;-74
2023/12/07 10:40:07;;;;;;;21.40;11.60;;;4.70;99.90;;;;;;5054456;28;20483;-74
2023/12/07 10:42:36;;;;;;;19.40;10.97;;;4.80;99.90;;;;;;5043835;28;20560;-73
2023/12/07 10:45:06;;;;;;;16.00;9.43;;;4.90;99.90;;;;;;5042551;28;22006;-74
2023/12/07 10:47:37;;;;;;;16.50;10.90;;;5.00;99.90;;;;;;5060295;28;20942;-74
2023/12/07 10:50:10;;;;;;;11.67;5.53;;;;;;;;;;5046955;28;20538;-73
2023/12/07 10:52:38;;;;;;;25.73;10.90;;;4.90;99.90;;;;;;5018979;28;20478;-74
2023/12/07 10:55:11;;;;;;;55.27;11.53;;;5.00;99.90;;;;;;5018105;28;20480;-74
2023/12/07 10:57:39;;;;;;;21.73;10.77;;;5.10;99.90;;;;;;5030967;28;20470;-73
2023/12/07 11:00:09;;;;;;;20.37;10.67;;;5.10;99.90;;;;;;5024671;28;20762;-74
2023/12/07 11:02:38;;;;;;;17.40;8.70;;;5.10;99.90;;;;;;5048018;28;20486;-74
2023/12/07 11:05:07;;;;;;;39.23;13.07;;;5.20;99.90;;;;;;5060460;28;20542;-73
2023/12/07 11:07:43;;;;;;;18.47;9.80;;;5.30;99.90;;;;;;5029024;28;21020;-74
2023/12/07 11:10:16;;;;;;;19.13;10.10;;;5.40;99.90;;;;;;5040329;28;20481;-75
2023/12/07 11:12:50;;;;;;;14.97;9.17;;;5.50;99.90;;;;;;5058589;28;20520;-73
2023/12/07 11:15:18;;;;;;;16.57;9.40;;;5.60;99.90;;;;;;5048217;28;20483;-72
2023/12/07 11:17:54;;;;;;;16.83;9.20;;;5.60;99.90;;;;;;5057227;28;20660;-75
2023/12/07 11:20:22;;;;;;;24.00;14.50;;;5.70;99.90;;;;;;5056434;28;20930;-75
2023/12/07 11:22:51;;;;;;;16.63;8.37;;;5.80;99.90;;;;;;5046899;28;20490;-75
2023/12/07 11:25:18;;;;;;;13.90;9.37;;;5.80;99.90;;;;;;5055386;28;20482;-73
2023/12/07 11:27:47;;;;;;;15.57;10.20;;;5.80;99.90;;;;;;5057808;28;20483;-74
2023/12/07 11:30:16;;;;;;;13.50;9.13;;;5.80;99.90;;;;;;5057988;28;20696;-75
2023/12/07 11:32:44;;;;;;;16.30;9.57;;;6.00;99.90;;;;;;5057723;28;20483;-76
2023/12/07 11:35:15;;;;;;;19.47;11.57;;;5.90;99.90;;;;;;5058023;28;20508;-76
2023/12/07 11:38:06;;;;;;;15.23;9.63;;;6.10;99.90;;;;;;5058273;28;20490;-75
2023/12/07 11:40:33;;;;;;;16.83;9.30;;;6.10;99.90;;;;;;5041493;28;20474;-76
2023/12/07 11:43:01;;;;;;;15.70;9.30;;;6.40;99.90;;;;;;5057500;28;20564;-76
2023/12/07 11:45:40;;;;;;;17.40;10.20;;;6.60;99.90;;;;;;5054640;28;21016;-75
2023/12/07 11:48:08;;;;;;;26.30;11.17;;;6.80;99.90;;;;;;5055297;28;20607;-73
2023/12/07 11:50:37;;;;;;;19.30;10.63;;;7.00;99.90;;;;;;5053706;28;20485;-76
2023/12/07 11:53:04;;;;;;;13.47;9.33;;;6.90;99.90;;;;;;5039529;28;20660;-75
2023/12/07 11:55:33;;;;;;;16.47;10.27;;;7.00;99.90;;;;;;5054981;28;20539;-75
2023/12/07 11:58:00;;;;;;;19.00;10.00;;;6.90;99.90;;;;;;5057119;28;20536;-73
2023/12/07 12:00:27;;;;;;;14.47;8.93;;;7.00;99.90;;;;;;5058975;28;20548;-73
2023/12/07 12:02:54;;;;;;;13.87;9.40;;;7.00;99.90;;;;;;5059312;28;20482;-76
2023/12/07 12:05:20;;;;;;;17.67;10.10;;;7.20;99.90;;;;;;5046731;28;20474;-76
2023/12/07 12:07:49;;;;;;;24.33;11.53;;;7.30;99.90;;;;;;5052056;28;20467;-75
2023/12/07 12:10:16;;;;;;;14.30;9.43;;;7.30;99.90;;;;;;5058077;28;20483;-75
2023/12/07 12:12:43;;;;;;;14.10;9.43;;;7.50;99.90;;;;;;5051974;28;20490;-73
2023/12/07 12:15:10;;;;;;;15.13;7.47;;;7.40;99.90;;;;;;5057361;28;20483;-75
2023/12/07 12:17:37;;;;;;;30.20;10.93;;;7.40;99.90;;;;;;5059073;28;20912;-74
2023/12/07 12:20:04;;;;;;;11.83;8.53;;;7.40;99.90;;;;;;5043797;28;20840;-77
2023/12/07 12:22:31;;;;;;;15.80;8.10;;;7.40;99.90;;;;;;5056823;28;20479;-77
2023/12/07 12:25:00;;;;;;;15.80;9.03;;;7.40;99.90;;;;;;5045401;28;20489;-76
2023/12/07 12:27:27;;;;;;;7.90;6.07;;;7.50;99.90;;;;;;5057626;28;20632;-76
2023/12/07 12:29:54;;;;;;;11.73;8.00;;;7.50;99.90;;;;;;5058395;28;20983;-77
2023/12/07 12:32:22;;;;;;;13.90;7.80;;;7.80;99.90;;;;;;5045688;28;20540;-78
2023/12/07 12:34:52;;;;;;;11.60;7.77;;;8.10;99.90;;;;;;5058937;28;20491;-77
2023/12/07 12:37:19;;;;;;;9.80;7.57;;;8.20;99.90;;;;;;5046037;28;21215;-77
2023/12/07 12:39:46;;;;;;;13.83;7.03;;;8.50;99.90;;;;;;5058595;28;20483;-76
2023/12/07 12:42:14;;;;;;;10.97;8.20;;;8.60;99.90;;;;;;5058922;28;20502;-76
2023/12/07 12:44:43;;;;;;;10.20;7.87;;;8.70;99.90;;;;;;5031312;28;20637;-77